Hovedside
METAR-TAF:

METAR-TAF

Lufthavner :

Lakselv, Norge

Lakselv lufthavn

breddegrad: 70-04N, lengdegrad: 024-59E, høyde over havet: 0 m

Gjeldene værobservasjon

Denne rapporten ble laget for 17 minutter siden, klokken 22:20 UTC
Vind 2 kt fra skiftende retning
Temperatur 9°C
Luftfuktighet 93%
Trykk 1020 hPa
Sikt 10 km eller mer

METAR: ENNA 242220Z AUTO VRB02KT 9999 NCD 09/08 Q1020 RMK WIND 1800FT 06007KT

Tid: 00:37 (22:37 UTC)

Varsel

Varsel gyldig fra 24. klokken 18 UTC til 25. klokken 18 UTC
Vind 8 kt fra Nord
Sikt 10 km eller mer
Få skyer i en høyde av 3000 ft
Midlertidig
fra 24. klokken 21 UTC til 25. klokken 09 UTC
Vind 10 kt fra Sør

TAF: ENNA 2418/2518 35008KT 9999 FEW030 TEMPO 2421/2509 18010KT

Værobservasjoner og værvarsel for over 4000 flyplasser (METAR- og TAF-rapporter).

Tilgjengelige stasjoner er representert av de røde og gule prikkene på kartet.

Hold musepekeren over prikken for å se navnet på stasjonen.

Klikk så for å se værobservasjoner og -varsler.

For å forandre kartet kan du klikke på den grønne knappen med svart kryss for å zoome inn, på den grønne knappen med strek for å zoome ut, eller på de grønne pilene for å se tilstøtende kart.


METAR-TAF: